Terminal Aerodrome Forecast
Issued by NWS

Home | Current Version | Previous Version | Text Only | Print | Product List | Glossary On
Versions: 1 2 3 4 5 6 7 8 9 10 11 12 13 14
000
FTUS41 KBTV 180500
TAFSLK
TAF
KSLK 180524Z 1806/1906 22006KT P6SM OVC060
     FM180800 VRB03KT P6SM OVC020
     FM181600 01005KT P6SM SCT040
     FM190000 03004KT P6SM SKC=

USA.gov is the U.S. government's official web portal to all federal, state and local government web resources and services.